createdAt,value
2023-04-06T00:02:01.200Z,8.30
2023-04-06T00:04:32.938Z,8.35
2023-04-06T00:07:02.719Z,8.77
2023-04-06T00:09:35.303Z,7.73
2023-04-06T00:12:11.793Z,8.10
2023-04-06T00:14:42.377Z,8.23
2023-04-06T00:17:12.876Z,7.07
2023-04-06T00:19:46.265Z,8.48
2023-04-06T00:22:17.615Z,8.43
2023-04-06T00:24:52.462Z,8.02
2023-04-06T00:27:24.990Z,7.53
2023-04-06T00:29:59.599Z,7.75
2023-04-06T00:32:30.939Z,8.73
2023-04-06T00:35:02.642Z,8.32
2023-04-06T00:37:32.445Z,7.70
2023-04-06T00:40:08.004Z,8.40
2023-04-06T00:42:41.155Z,8.05
2023-04-06T00:45:12.700Z,8.00
2023-04-06T00:50:23.255Z,7.30
2023-04-06T00:53:00.507Z,7.88
2023-04-06T00:55:33.684Z,8.45
2023-04-06T00:58:08.816Z,8.27
2023-04-06T01:00:38.836Z,8.25
2023-04-06T01:03:09.051Z,7.47
2023-04-06T01:05:44.148Z,6.85
2023-04-06T01:08:15.203Z,7.80
2023-04-06T01:13:25.917Z,6.82
2023-04-06T01:15:58.179Z,7.32
2023-04-06T01:18:29.414Z,7.70
2023-04-06T01:21:05.973Z,7.47
2023-04-06T01:23:40.308Z,6.97
2023-04-06T01:26:10.297Z,6.57
2023-04-06T01:28:40.050Z,6.22
2023-04-06T01:31:13.100Z,6.28
2023-04-06T01:33:43.223Z,7.13
2023-04-06T01:36:17.833Z,6.43
2023-04-06T01:38:49.554Z,7.25
2023-04-06T01:41:20.435Z,6.43
2023-04-06T01:43:51.369Z,6.70
2023-04-06T01:46:21.722Z,8.18
2023-04-06T01:48:51.772Z,6.40
2023-04-06T01:51:25.828Z,6.13
2023-04-06T01:53:57.145Z,6.65
2023-04-06T01:56:27.890Z,5.85
2023-04-06T01:59:00.679Z,6.47
2023-04-06T02:01:31.143Z,6.63
2023-04-06T02:04:03.518Z,7.47
2023-04-06T02:06:36.321Z,6.40
2023-04-06T02:09:07.925Z,7.50
2023-04-06T02:11:41.012Z,5.95
2023-04-06T02:14:11.124Z,6.65
2023-04-06T02:16:46.797Z,7.03
2023-04-06T02:19:16.329Z,6.13
2023-04-06T02:21:47.731Z,5.73
2023-04-06T02:24:19.363Z,8.45
2023-04-06T02:26:49.453Z,6.63
2023-04-06T02:29:19.278Z,5.93
2023-04-06T02:31:53.917Z,6.00
2023-04-06T02:36:58.072Z,5.93
2023-04-06T02:39:29.510Z,6.90
2023-04-06T02:42:00.229Z,5.75
2023-04-06T02:44:30.050Z,6.20
2023-04-06T02:47:00.549Z,6.15
2023-04-06T02:49:32.634Z,6.68
2023-04-06T02:52:02.832Z,5.80
2023-04-06T02:54:35.640Z,6.15
2023-04-06T02:57:07.797Z,5.82
2023-04-06T02:59:39.214Z,6.35
2023-04-06T03:02:09.396Z,6.32
2023-04-06T03:04:44.877Z,7.03
2023-04-06T03:07:15.001Z,6.68
2023-04-06T03:09:46.552Z,6.93
2023-04-06T03:12:16.942Z,7.55
2023-04-06T03:14:47.264Z,5.78
2023-04-06T03:17:17.319Z,5.72
2023-04-06T03:19:46.870Z,5.85
2023-04-06T03:22:25.344Z,5.93
2023-04-06T03:24:58.393Z,5.65
2023-04-06T03:27:31.894Z,6.60
2023-04-06T03:30:06.539Z,6.35
2023-04-06T03:32:39.408Z,5.63
2023-04-06T03:35:12.265Z,6.15
2023-04-06T03:37:42.359Z,6.07
2023-04-06T03:40:14.172Z,5.15
2023-04-06T03:42:44.267Z,6.82
2023-04-06T03:45:15.516Z,5.35
2023-04-06T03:47:46.107Z,5.40
2023-04-06T03:50:16.010Z,5.80
2023-04-06T03:52:48.543Z,6.93
2023-04-06T03:55:19.928Z,6.28
2023-04-06T03:57:50.414Z,8.23
2023-04-06T04:00:21.144Z,6.45
2023-04-06T04:02:51.342Z,7.65
2023-04-06T04:05:21.281Z,6.20
2023-04-06T04:07:54.054Z,7.57
2023-04-06T04:10:34.078Z,7.22
2023-04-06T04:13:05.236Z,6.97
2023-04-06T04:15:38.014Z,7.32
2023-04-06T04:18:08.746Z,7.68
2023-04-06T04:20:38.566Z,8.90
2023-04-06T04:23:08.963Z,7.47
2023-04-06T04:25:49.235Z,7.65
2023-04-06T04:28:19.365Z,7.15
2023-04-06T04:30:54.835Z,7.63
2023-04-06T04:33:27.487Z,8.38
2023-04-06T04:35:57.422Z,8.25
2023-04-06T04:38:32.134Z,8.13
2023-04-06T04:41:10.735Z,10.40
2023-04-06T04:43:40.903Z,8.93
2023-04-06T04:46:14.821Z,9.82
2023-04-06T04:48:50.331Z,10.55
2023-04-06T04:51:27.302Z,13.05
2023-04-06T05:01:55.442Z,10.27
2023-04-06T05:04:30.396Z,9.50
2023-04-06T05:07:09.388Z,9.85
2023-04-06T05:09:44.304Z,8.10
2023-04-06T05:12:14.913Z,9.02
2023-04-06T05:14:44.980Z,9.10
2023-04-06T05:17:16.109Z,7.85
2023-04-06T05:19:47.077Z,7.97
2023-04-06T05:22:19.820Z,8.80
2023-04-06T05:24:51.451Z,7.55
2023-04-06T05:27:21.285Z,7.47
2023-04-06T05:29:58.167Z,8.47
2023-04-06T05:32:30.189Z,10.00
2023-04-06T05:35:00.600Z,7.85
2023-04-06T05:37:30.215Z,8.00
2023-04-06T05:40:00.014Z,8.52
2023-04-06T05:42:30.119Z,9.18
2023-04-06T05:45:00.316Z,10.60
2023-04-06T05:47:31.367Z,9.13
2023-04-06T05:50:02.254Z,9.82
2023-04-06T05:52:33.975Z,10.32
2023-04-06T05:55:03.758Z,11.23
2023-04-06T05:57:33.617Z,10.88
2023-04-06T06:00:04.981Z,12.68
2023-04-06T06:05:08.467Z,7.75
2023-04-06T06:07:37.906Z,5.28
2023-04-06T06:10:09.748Z,3.80
2023-04-06T06:12:39.365Z,3.38
2023-04-06T06:15:10.607Z,4.15
2023-04-06T06:17:41.506Z,3.70
2023-04-06T06:20:12.605Z,4.07
2023-04-06T06:22:42.493Z,4.28
2023-04-06T06:25:12.636Z,3.60
2023-04-06T06:27:43.221Z,3.45
2023-04-06T06:32:44.555Z,3.42
2023-04-06T06:35:14.752Z,3.90
2023-04-06T06:37:44.295Z,3.63
2023-04-06T06:40:17.386Z,4.05
2023-04-06T06:42:46.924Z,4.03
2023-04-06T06:45:17.020Z,4.55
2023-04-06T06:47:48.035Z,3.15
2023-04-06T06:50:18.093Z,3.75
2023-04-06T06:52:47.505Z,4.57
2023-04-06T06:55:17.850Z,2.30
2023-04-06T06:57:47.684Z,2.90
2023-04-06T07:00:18.425Z,3.40
2023-04-06T07:02:49.874Z,3.27
2023-04-06T07:05:28.182Z,3.40
2023-04-06T07:07:59.031Z,3.30
2023-04-06T07:10:30.023Z,3.42
2023-04-06T07:12:59.608Z,3.38
2023-04-06T07:15:29.446Z,3.58
2023-04-06T07:18:00.845Z,4.20
2023-04-06T07:20:30.716Z,4.20
2023-04-06T07:23:00.099Z,5.20
2023-04-06T07:25:30.006Z,4.35
2023-04-06T07:27:59.957Z,6.10
2023-04-06T07:30:31.681Z,7.40
2023-04-06T07:33:03.333Z,8.00
2023-04-06T07:35:33.522Z,7.78
2023-04-06T07:38:03.660Z,7.40
2023-04-06T07:40:34.605Z,7.22
2023-04-06T07:43:04.753Z,8.73
2023-04-06T07:45:34.695Z,6.65
2023-04-06T07:48:05.798Z,7.80
2023-04-06T07:50:35.926Z,4.90
2023-04-06T07:53:05.506Z,4.45
2023-04-06T07:55:35.266Z,4.35
2023-04-06T07:58:04.789Z,4.57
2023-04-06T08:00:34.810Z,3.80
2023-04-06T08:03:06.510Z,4.00
2023-04-06T08:05:37.142Z,5.15
2023-04-06T08:08:06.724Z,5.00
2023-04-06T08:10:37.048Z,4.22
2023-04-06T08:13:06.582Z,4.25
2023-04-06T08:15:36.267Z,5.05
2023-04-06T08:18:07.407Z,5.22
2023-04-06T08:20:37.111Z,5.63
2023-04-06T08:23:07.992Z,5.25
2023-04-06T08:28:07.591Z,4.68
2023-04-06T08:30:37.402Z,4.50
2023-04-06T08:33:09.581Z,4.50
2023-04-06T08:35:39.541Z,4.07
2023-04-06T08:38:09.010Z,4.82
2023-04-06T08:40:41.876Z,4.32
2023-04-06T08:43:16.215Z,4.43
2023-04-06T08:45:46.140Z,4.15
2023-04-06T08:48:19.108Z,3.83
2023-04-06T08:50:49.393Z,3.55
2023-04-06T08:53:19.090Z,3.17
2023-04-06T08:55:49.445Z,2.70
2023-04-06T08:58:31.264Z,3.17
2023-04-06T09:01:11.060Z,3.00
2023-04-06T09:03:43.340Z,2.65
2023-04-06T09:06:13.996Z,2.55
2023-04-06T09:08:43.909Z,2.87
2023-04-06T09:11:14.126Z,2.92
2023-04-06T09:13:52.065Z,2.65
2023-04-06T09:16:22.631Z,2.65
2023-04-06T09:18:53.943Z,4.43
2023-04-06T09:21:25.957Z,2.30
2023-04-06T09:24:02.717Z,2.42
2023-04-06T09:26:35.007Z,2.15
2023-04-06T09:29:04.852Z,2.80
2023-04-06T09:31:34.903Z,2.60
2023-04-06T09:34:06.006Z,3.13
2023-04-06T09:36:39.604Z,2.67
2023-04-06T09:39:09.136Z,3.08
2023-04-06T09:41:39.466Z,2.58
2023-04-06T09:44:10.150Z,2.20
2023-04-06T09:46:57.953Z,1.90
2023-04-06T09:49:33.858Z,2.53
2023-04-06T09:52:05.575Z,2.28
2023-04-06T09:54:35.009Z,2.80
2023-04-06T09:57:12.652Z,2.33
2023-04-06T09:59:53.410Z,2.13
2023-04-06T10:02:33.014Z,2.95
2023-04-06T10:05:10.880Z,2.88
2023-04-06T10:07:49.763Z,2.10
2023-04-06T10:10:29.962Z,2.38
2023-04-06T10:13:01.239Z,3.53
2023-04-06T10:15:32.147Z,2.05
2023-04-06T10:18:03.399Z,2.05
2023-04-06T10:20:42.393Z,2.15
2023-04-06T10:23:17.206Z,2.47
2023-04-06T10:25:56.489Z,2.13
2023-04-06T10:28:26.586Z,2.40
2023-04-06T10:31:01.142Z,1.77
2023-04-06T10:33:31.473Z,1.77
2023-04-06T10:36:13.123Z,2.90
2023-04-06T10:38:44.103Z,1.90
2023-04-06T10:41:15.300Z,2.05
2023-04-06T10:43:45.893Z,1.60
2023-04-06T10:46:27.577Z,2.42
2023-04-06T10:48:57.942Z,2.22
2023-04-06T10:51:32.289Z,2.60
2023-04-06T10:54:03.567Z,1.92
2023-04-06T10:56:35.702Z,2.75
2023-04-06T10:59:06.106Z,1.60
2023-04-06T11:01:35.692Z,1.52
2023-04-06T11:04:05.664Z,1.80
2023-04-06T11:06:36.680Z,2.20
2023-04-06T11:09:06.495Z,2.42
2023-04-06T11:11:36.432Z,2.17
2023-04-06T11:14:06.301Z,2.45
2023-04-06T11:16:36.229Z,1.60
2023-04-06T11:19:08.838Z,1.70
2023-04-06T11:21:41.214Z,2.00
2023-04-06T11:24:12.573Z,2.00
2023-04-06T11:26:45.093Z,1.48
2023-04-06T11:29:16.053Z,1.58
2023-04-06T11:31:47.856Z,1.75
2023-04-06T11:34:20.186Z,1.75
2023-04-06T11:36:56.479Z,2.08
2023-04-06T11:39:27.717Z,2.13
2023-04-06T11:44:35.702Z,2.20
2023-04-06T11:47:06.371Z,2.58
2023-04-06T11:49:39.728Z,1.77
2023-04-06T11:52:20.434Z,1.17
2023-04-06T11:54:51.134Z,1.63
2023-04-06T11:57:21.568Z,2.05
2023-04-06T11:59:51.912Z,1.40
2023-04-06T12:02:21.603Z,1.85
2023-04-06T12:04:51.451Z,1.67
2023-04-06T12:07:22.241Z,1.42
2023-04-06T12:09:52.076Z,1.48
2023-04-06T12:12:21.397Z,1.45
2023-04-06T12:14:51.259Z,1.50
2023-04-06T12:17:21.675Z,1.33
2023-04-06T12:19:52.105Z,1.15
2023-04-06T12:22:22.925Z,1.17
2023-04-06T12:24:52.712Z,1.30
2023-04-06T12:27:22.578Z,0.90
2023-04-06T12:29:53.175Z,1.30
2023-04-06T12:32:22.778Z,0.85
2023-04-06T12:34:55.048Z,1.00
2023-04-06T12:37:26.098Z,1.40
2023-04-06T12:39:56.453Z,0.95
2023-04-06T12:42:25.990Z,0.70
2023-04-06T12:44:57.833Z,0.95
2023-04-06T12:47:29.113Z,0.70
2023-04-06T12:49:59.012Z,0.75
2023-04-06T12:52:31.735Z,0.98
2023-04-06T12:55:02.251Z,0.70
2023-04-06T12:57:31.923Z,0.88
2023-04-06T13:00:01.794Z,0.68
2023-04-06T13:02:32.581Z,0.90
2023-04-06T13:05:02.373Z,0.52
2023-04-06T13:07:33.422Z,0.63
2023-04-06T13:10:03.929Z,0.65
2023-04-06T13:12:33.265Z,0.63
2023-04-06T13:15:03.602Z,0.75
2023-04-06T13:17:33.248Z,0.60
2023-04-06T13:20:03.011Z,0.50
2023-04-06T13:22:33.942Z,0.65
2023-04-06T13:25:03.995Z,0.65
2023-04-06T13:27:35.205Z,0.73
2023-04-06T13:30:05.330Z,0.60
2023-04-06T13:32:35.832Z,0.57
2023-04-06T13:35:06.276Z,0.73
2023-04-06T13:37:37.960Z,0.80
2023-04-06T13:40:09.219Z,0.90
2023-04-06T13:45:10.208Z,1.53
2023-04-06T13:47:40.109Z,0.98
2023-04-06T13:50:10.696Z,0.50
2023-04-06T13:52:41.638Z,0.50
2023-04-06T13:55:11.769Z,0.70
2023-04-06T13:57:41.070Z,1.05
2023-04-06T14:00:12.868Z,1.00
2023-04-06T14:02:43.700Z,0.75
2023-04-06T14:05:14.290Z,0.80
2023-04-06T14:07:45.076Z,2.10
2023-04-06T14:10:16.220Z,0.70
2023-04-06T14:12:46.405Z,2.60
2023-04-06T14:17:46.281Z,0.70
2023-04-06T14:20:16.604Z,0.60
2023-04-06T14:22:48.346Z,1.00
2023-04-06T14:25:18.719Z,0.77
2023-04-06T14:27:48.115Z,0.80
2023-04-06T14:30:18.753Z,0.73
2023-04-06T14:32:48.028Z,0.73
2023-04-06T14:35:17.908Z,0.65
2023-04-06T14:37:48.737Z,0.65
2023-04-06T14:40:19.203Z,0.45
2023-04-06T14:42:48.950Z,0.52
2023-04-06T14:45:19.293Z,0.87
2023-04-06T14:47:48.811Z,1.00
2023-04-06T14:50:18.817Z,0.52
2023-04-06T14:52:49.702Z,0.60
2023-04-06T14:55:19.802Z,0.55
2023-04-06T14:57:49.255Z,0.85
2023-04-06T15:00:20.049Z,0.60
2023-04-06T15:02:49.960Z,1.05
2023-04-06T15:05:19.955Z,1.40
2023-04-06T15:07:50.736Z,1.00
2023-04-06T15:10:21.578Z,0.60
2023-04-06T15:12:50.931Z,0.60
2023-04-06T15:15:21.508Z,0.73
2023-04-06T15:17:51.027Z,1.48
2023-04-06T15:20:20.938Z,1.05
2023-04-06T15:22:51.763Z,1.10
2023-04-06T15:25:21.711Z,1.38
2023-04-06T15:27:51.165Z,1.30
2023-04-06T15:30:21.460Z,0.60
2023-04-06T15:32:55.756Z,0.45
2023-04-06T15:35:26.715Z,2.05
2023-04-06T15:37:58.164Z,0.85
2023-04-06T15:40:28.280Z,0.98
2023-04-06T15:42:57.577Z,0.80
2023-04-06T15:45:28.222Z,0.90
2023-04-06T15:47:57.708Z,1.42
2023-04-06T15:50:28.303Z,1.50
2023-04-06T15:52:59.344Z,1.00
2023-04-06T15:55:29.160Z,1.02
2023-04-06T15:57:58.628Z,1.20
2023-04-06T16:00:29.943Z,1.30
2023-04-06T16:02:59.412Z,1.23
2023-04-06T16:05:34.684Z,1.10
2023-04-06T16:08:07.199Z,0.85
2023-04-06T16:10:37.221Z,1.48
2023-04-06T16:13:06.565Z,1.95
2023-04-06T16:15:36.840Z,1.30
2023-04-06T16:18:06.868Z,1.10
2023-04-06T16:20:37.979Z,1.10
2023-04-06T16:23:09.255Z,1.13
2023-04-06T16:25:39.207Z,1.40
2023-04-06T16:28:08.865Z,1.60
2023-04-06T16:30:40.507Z,1.67
2023-04-06T16:33:11.469Z,1.60
2023-04-06T16:35:45.776Z,1.73
2023-04-06T16:38:17.101Z,1.45
2023-04-06T16:40:46.923Z,1.63
2023-04-06T16:43:16.648Z,1.25
2023-04-06T16:45:52.670Z,1.33
2023-04-06T16:48:22.281Z,2.03
2023-04-06T16:50:51.907Z,1.42
2023-04-06T16:53:22.753Z,1.85
2023-04-06T16:55:52.784Z,1.45
2023-04-06T16:58:22.248Z,1.73
2023-04-06T17:00:52.163Z,1.90
2023-04-06T17:03:21.857Z,1.77
2023-04-06T17:05:51.763Z,1.70
2023-04-06T17:08:22.600Z,1.90
2023-04-06T17:11:02.669Z,2.30
2023-04-06T17:13:33.403Z,3.00
2023-04-06T17:16:03.542Z,2.72
2023-04-06T17:18:32.816Z,2.50
2023-04-06T17:21:06.497Z,3.00
2023-04-06T17:23:37.488Z,3.03
2023-04-06T17:26:08.357Z,2.38
2023-04-06T17:28:38.722Z,3.47
2023-04-06T17:31:11.482Z,2.95
2023-04-06T17:33:41.532Z,3.58
2023-04-06T17:36:12.799Z,4.00
2023-04-06T17:38:46.219Z,3.33
2023-04-06T17:41:16.423Z,2.55
2023-04-06T17:43:46.494Z,3.30
2023-04-06T17:46:16.720Z,3.30
2023-04-06T17:48:47.329Z,2.47
2023-04-06T17:53:50.286Z,2.72
2023-04-06T17:56:21.926Z,2.92
2023-04-06T18:01:25.838Z,2.17
2023-04-06T18:03:55.850Z,2.05
2023-04-06T18:06:26.731Z,3.22
2023-04-06T18:08:58.130Z,2.90
2023-04-06T18:11:31.125Z,3.25
2023-04-06T18:14:00.952Z,2.50
2023-04-06T18:16:30.773Z,3.23
2023-04-06T18:19:00.272Z,2.65
2023-04-06T18:21:30.402Z,4.18
2023-04-06T18:24:04.105Z,2.85
2023-04-06T18:26:36.690Z,2.40
2023-04-06T18:29:06.545Z,3.38
2023-04-06T18:34:11.635Z,2.58
2023-04-06T18:36:41.604Z,2.13
2023-04-06T18:39:13.627Z,2.03
2023-04-06T18:41:43.762Z,2.10
2023-04-06T18:44:13.669Z,2.13
2023-04-06T18:46:46.310Z,2.90
2023-04-06T18:49:15.882Z,2.10
2023-04-06T18:51:45.909Z,2.17
2023-04-06T18:54:16.829Z,2.65
2023-04-06T18:56:46.540Z,2.35
2023-04-06T18:59:17.655Z,2.70
2023-04-06T19:01:51.362Z,2.58
2023-04-06T19:04:21.730Z,2.15
2023-04-06T19:06:51.502Z,1.85
2023-04-06T19:09:22.467Z,2.33
2023-04-06T19:11:52.435Z,2.40
2023-04-06T19:14:22.279Z,1.95
2023-04-06T19:16:53.443Z,2.22
2023-04-06T19:19:23.094Z,2.88
2023-04-06T19:21:53.047Z,2.55
2023-04-06T19:24:23.804Z,3.70
2023-04-06T19:26:54.100Z,3.45
2023-04-06T19:29:23.367Z,3.00
2023-04-06T19:31:53.187Z,3.17
2023-04-06T19:34:22.879Z,1.85
2023-04-06T19:36:52.678Z,3.17
2023-04-06T19:39:23.962Z,3.40
2023-04-06T19:41:53.902Z,3.35
2023-04-06T19:44:23.749Z,2.20
2023-04-06T19:46:53.763Z,4.03
2023-04-06T19:49:23.305Z,2.38
2023-04-06T19:51:53.242Z,2.88
2023-04-06T19:54:24.927Z,3.65
2023-04-06T19:56:55.276Z,2.70
2023-04-06T19:59:25.015Z,3.53
2023-04-06T20:01:55.074Z,2.50
2023-04-06T20:04:25.336Z,2.58
2023-04-06T20:06:55.472Z,2.83
2023-04-06T20:09:26.711Z,2.08
2023-04-06T20:11:56.765Z,2.65
2023-04-06T20:14:26.396Z,3.03
2023-04-06T20:16:56.656Z,2.67
2023-04-06T20:19:26.041Z,3.50
2023-04-06T20:21:56.365Z,3.05
2023-04-06T20:24:27.196Z,3.60
2023-04-06T20:26:57.297Z,3.13
2023-04-06T20:29:27.001Z,3.35
2023-04-06T20:31:56.703Z,3.67
2023-04-06T20:34:29.160Z,3.38
2023-04-06T20:36:59.439Z,2.58
2023-04-06T20:39:31.179Z,3.35
2023-04-06T20:42:01.661Z,3.00
2023-04-06T20:44:31.847Z,3.00
2023-04-06T20:47:01.908Z,3.00
2023-04-06T20:49:31.531Z,4.32
2023-04-06T20:52:01.883Z,3.33
2023-04-06T20:54:32.631Z,3.17
2023-04-06T20:59:31.666Z,3.15
2023-04-06T21:02:01.727Z,3.35
2023-04-06T21:04:31.287Z,3.40
2023-04-06T21:07:01.191Z,3.28
2023-04-06T21:09:32.285Z,3.53
2023-04-06T21:12:02.121Z,3.47
2023-04-06T21:14:32.148Z,4.45
2023-04-06T21:17:02.091Z,4.15
2023-04-06T21:19:31.971Z,4.32
2023-04-06T21:22:02.100Z,3.90
2023-04-06T21:24:32.955Z,3.72
2023-04-06T21:27:03.032Z,4.30
2023-04-06T21:29:34.139Z,3.85
2023-04-06T21:32:04.136Z,3.88
2023-04-06T21:34:34.025Z,3.17
2023-04-06T21:37:03.773Z,3.30
2023-04-06T21:39:35.067Z,3.53
2023-04-06T21:42:05.634Z,3.38
2023-04-06T21:44:36.122Z,3.73
2023-04-06T21:47:06.023Z,3.90
2023-04-06T21:49:35.819Z,3.63
2023-04-06T21:52:05.621Z,3.28
2023-04-06T21:54:36.500Z,3.45
2023-04-06T21:57:06.691Z,3.58
2023-04-06T21:59:35.944Z,4.20
2023-04-06T22:02:06.042Z,5.97
2023-04-06T22:04:35.899Z,3.88
2023-04-06T22:07:06.370Z,4.00
2023-04-06T22:09:37.380Z,4.47
2023-04-06T22:12:07.449Z,4.32
2023-04-06T22:14:37.981Z,4.25
2023-04-06T22:17:07.706Z,3.78
2023-04-06T22:19:37.352Z,3.45
2023-04-06T22:22:07.299Z,3.88
2023-04-06T22:24:38.382Z,4.53
2023-04-06T22:27:09.508Z,3.83
2023-04-06T22:29:39.004Z,4.37
2023-04-06T22:32:09.177Z,5.45
2023-04-06T22:34:38.687Z,4.88
2023-04-06T22:37:08.990Z,4.93
2023-04-06T22:39:39.970Z,5.35
2023-04-06T22:42:09.878Z,5.72
2023-04-06T22:44:39.394Z,6.32
2023-04-06T22:47:09.194Z,5.22
2023-04-06T22:49:39.657Z,6.38
2023-04-06T22:52:09.357Z,6.90
2023-04-06T22:54:40.291Z,6.80
2023-04-06T22:57:10.112Z,6.82
2023-04-06T22:59:39.721Z,6.32
2023-04-06T23:02:09.612Z,7.40
2023-04-06T23:04:39.017Z,6.55
2023-04-06T23:07:08.656Z,7.75
2023-04-06T23:09:39.735Z,7.53
2023-04-06T23:12:09.887Z,7.45
2023-04-06T23:14:39.530Z,7.88
2023-04-06T23:17:09.810Z,8.88
2023-04-06T23:19:39.177Z,7.53
2023-04-06T23:22:09.391Z,7.87
2023-04-06T23:24:40.124Z,7.72
2023-04-06T23:27:10.314Z,8.55
2023-04-06T23:29:39.749Z,9.95
2023-04-06T23:32:10.215Z,8.63
2023-04-06T23:34:39.694Z,8.50
2023-04-06T23:37:09.590Z,8.57
2023-04-06T23:39:40.912Z,8.90
2023-04-06T23:42:10.756Z,10.00
2023-04-06T23:44:40.621Z,8.75
2023-04-06T23:47:11.020Z,10.27
2023-04-06T23:49:40.382Z,10.60
2023-04-06T23:52:10.572Z,10.27
2023-04-06T23:54:41.774Z,9.77
2023-04-06T23:57:11.674Z,10.90
2023-04-06T23:59:40.928Z,11.63
